createdAt,value
2022-09-14T00:00:18.494Z,17.62
2022-09-14T00:03:21.031Z,17.58
2022-09-14T00:06:22.984Z,17.50
2022-09-14T00:09:25.378Z,17.47
2022-09-14T00:12:27.736Z,17.45
2022-09-14T00:15:29.414Z,17.40
2022-09-14T00:18:32.110Z,17.39
2022-09-14T00:21:36.041Z,17.39
2022-09-14T00:24:37.677Z,17.34
2022-09-14T00:27:39.392Z,17.30
2022-09-14T00:30:41.931Z,17.28
2022-09-14T00:33:46.002Z,17.19
2022-09-14T00:36:49.722Z,17.20
2022-09-14T00:39:51.486Z,17.13
2022-09-14T00:42:53.236Z,17.07
2022-09-14T00:45:54.953Z,17.08
2022-09-14T00:49:00.088Z,17.01
2022-09-14T00:52:07.103Z,16.95
2022-09-14T00:55:13.019Z,16.94
2022-09-14T00:58:14.765Z,16.85
2022-09-14T01:01:16.592Z,16.82
2022-09-14T01:04:18.650Z,16.86
2022-09-14T01:07:52.662Z,16.78
2022-09-14T01:11:23.347Z,16.69
2022-09-14T01:14:37.560Z,16.67
2022-09-14T01:18:00.754Z,16.55
2022-09-14T01:21:12.323Z,16.58
2022-09-14T01:24:35.875Z,16.61
2022-09-14T01:27:40.393Z,16.64
2022-09-14T01:30:44.041Z,16.61
2022-09-14T01:33:53.730Z,16.57
2022-09-14T01:37:03.980Z,16.42
2022-09-14T01:40:16.271Z,16.34
2022-09-14T01:43:41.747Z,16.31
2022-09-14T01:46:47.055Z,16.35
2022-09-14T01:49:54.968Z,16.38
2022-09-14T01:53:04.416Z,16.40
2022-09-14T01:56:19.037Z,16.40
2022-09-14T01:59:24.979Z,16.38
2022-09-14T02:02:33.697Z,16.20
2022-09-14T02:05:44.817Z,16.31
2022-09-14T02:08:46.578Z,16.19
2022-09-14T02:11:48.876Z,16.23
2022-09-14T02:14:52.574Z,16.21
2022-09-14T02:17:54.327Z,16.18
2022-09-14T02:21:03.064Z,16.11
2022-09-14T02:24:05.291Z,16.12
2022-09-14T02:27:07.980Z,16.08
2022-09-14T02:30:10.268Z,16.02
2022-09-14T02:33:22.704Z,16.05
2022-09-14T02:36:41.869Z,16.06
2022-09-14T02:39:57.432Z,15.99
2022-09-14T02:43:16.416Z,16.03
2022-09-14T02:46:37.026Z,16.00
2022-09-14T02:49:58.488Z,15.99
2022-09-14T02:53:14.175Z,16.03
2022-09-14T02:56:17.792Z,16.09
2022-09-14T02:59:19.591Z,16.15
2022-09-14T03:02:21.938Z,16.20
2022-09-14T03:05:23.691Z,16.16
2022-09-14T03:08:26.914Z,16.10
2022-09-14T03:11:28.572Z,16.10
2022-09-14T03:14:30.332Z,16.22
2022-09-14T03:17:32.032Z,16.28
2022-09-14T03:20:34.618Z,16.24
2022-09-14T03:23:38.663Z,16.28
2022-09-14T03:26:40.336Z,16.38
2022-09-14T03:29:42.143Z,16.40
2022-09-14T03:32:43.967Z,16.38
2022-09-14T03:35:45.608Z,16.44
2022-09-14T03:38:50.355Z,16.46
2022-09-14T03:41:52.032Z,16.40
2022-09-14T03:44:53.718Z,16.45
2022-09-14T03:47:55.378Z,16.45
2022-09-14T03:51:00.564Z,16.50
2022-09-14T03:54:02.176Z,16.40
2022-09-14T03:57:04.099Z,16.54
2022-09-14T04:00:07.289Z,16.39
2022-09-14T04:03:08.958Z,16.34
2022-09-14T04:06:10.842Z,16.33
2022-09-14T04:09:12.552Z,16.38
2022-09-14T04:12:14.221Z,16.39
2022-09-14T04:15:16.119Z,16.37
2022-09-14T04:18:17.766Z,16.42
2022-09-14T04:21:22.972Z,16.43
2022-09-14T04:24:29.926Z,16.30
2022-09-14T04:27:32.124Z,16.33
2022-09-14T04:30:33.820Z,16.33
2022-09-14T04:33:36.778Z,16.31
2022-09-14T04:36:38.537Z,16.33
2022-09-14T04:39:40.317Z,16.19
2022-09-14T04:42:41.958Z,16.25
2022-09-14T04:45:43.560Z,16.29
2022-09-14T04:48:45.822Z,16.37
2022-09-14T04:51:48.228Z,16.37
2022-09-14T04:54:49.969Z,16.34
2022-09-14T04:57:51.609Z,16.37
2022-09-14T05:00:53.307Z,16.32
2022-09-14T05:03:55.134Z,16.40
2022-09-14T05:06:56.853Z,16.41
2022-09-14T05:09:58.612Z,16.44
2022-09-14T05:13:00.250Z,16.45
2022-09-14T05:16:09.217Z,16.47
2022-09-14T05:19:14.400Z,16.46
2022-09-14T05:22:16.359Z,16.55
2022-09-14T05:25:18.099Z,16.68
2022-09-14T05:28:19.895Z,16.73
2022-09-14T05:31:22.467Z,16.74
2022-09-14T05:34:24.309Z,16.79
2022-09-14T05:37:26.076Z,16.80
2022-09-14T05:40:27.870Z,16.78
2022-09-14T05:43:29.969Z,16.76
2022-09-14T05:46:31.795Z,16.78
2022-09-14T05:49:33.601Z,16.77
2022-09-14T05:52:35.286Z,16.70
2022-09-14T05:55:37.113Z,16.59
2022-09-14T05:58:40.901Z,16.53
2022-09-14T06:01:43.086Z,16.56
2022-09-14T06:04:44.940Z,16.67
2022-09-14T06:07:53.339Z,16.88
2022-09-14T06:11:10.606Z,17.01
2022-09-14T06:14:16.696Z,17.06
2022-09-14T06:17:18.766Z,17.06
2022-09-14T06:20:27.091Z,17.18
2022-09-14T06:23:32.066Z,17.30
2022-09-14T06:26:46.214Z,17.49
2022-09-14T06:29:48.571Z,17.94
2022-09-14T06:32:50.770Z,17.76
2022-09-14T06:36:09.247Z,17.53
2022-09-14T06:39:11.164Z,17.96
2022-09-14T06:42:13.107Z,18.18
2022-09-14T06:45:15.209Z,17.96
2022-09-14T06:48:17.008Z,17.90
2022-09-14T06:51:23.522Z,18.23
2022-09-14T06:54:25.216Z,17.99
2022-09-14T06:57:27.113Z,17.87
2022-09-14T07:00:29.013Z,17.97
2022-09-14T07:03:31.925Z,17.92
2022-09-14T07:06:43.561Z,17.82
2022-09-14T07:09:45.387Z,17.73
2022-09-14T07:12:47.466Z,17.40
2022-09-14T07:15:50.177Z,17.32
2022-09-14T07:19:00.919Z,17.31
2022-09-14T07:22:02.683Z,17.34
2022-09-14T07:25:04.897Z,17.39
2022-09-14T07:28:08.085Z,17.60
2022-09-14T07:31:24.096Z,17.72
2022-09-14T07:34:26.036Z,17.91
2022-09-14T07:37:29.384Z,17.82
2022-09-14T07:43:37.522Z,17.88
2022-09-14T07:46:42.210Z,18.03
2022-09-14T07:49:43.907Z,18.13
2022-09-14T08:01:05.683Z,18.89
2022-09-14T08:04:08.246Z,18.89
2022-09-14T08:07:10.151Z,18.22
2022-09-14T08:10:12.678Z,18.25
2022-09-14T08:13:14.639Z,18.30
2022-09-14T08:16:17.678Z,18.14
2022-09-14T08:19:19.615Z,18.08
2022-09-14T08:22:21.703Z,17.99
2022-09-14T08:25:23.504Z,17.87
2022-09-14T09:41:05.118Z,21.41
2022-09-14T09:44:20.481Z,21.43
2022-09-14T09:47:39.675Z,21.64
2022-09-14T09:51:10.560Z,21.51
2022-09-14T09:54:36.556Z,21.73
2022-09-14T09:57:51.574Z,21.52
2022-09-14T10:01:08.893Z,21.90
2022-09-14T10:04:27.510Z,21.18
2022-09-14T10:07:49.055Z,21.03
2022-09-14T10:10:57.110Z,21.16
2022-09-14T10:14:05.588Z,21.72
2022-09-14T10:17:27.563Z,21.62
2022-09-14T10:20:36.538Z,22.19
2022-09-14T10:23:45.813Z,22.51
2022-09-14T10:27:04.534Z,22.41
2022-09-14T10:30:21.543Z,22.03
2022-09-14T10:33:30.475Z,22.07
2022-09-14T10:36:47.564Z,21.96
2022-09-14T10:40:15.009Z,22.26
2022-09-14T10:43:46.572Z,22.71
2022-09-14T10:47:29.620Z,22.78
2022-09-14T10:51:08.968Z,22.52
2022-09-14T10:54:57.108Z,22.16
2022-09-14T10:58:35.544Z,22.08
2022-09-14T11:02:20.685Z,22.23
2022-09-14T11:05:42.222Z,22.43
2022-09-14T11:09:02.589Z,22.66
2022-09-14T11:12:28.629Z,22.55
2022-09-14T11:15:51.133Z,22.55
2022-09-14T11:19:28.745Z,22.55
2022-09-14T11:23:02.631Z,22.40
2022-09-14T11:26:32.614Z,22.38
2022-09-14T11:30:08.682Z,22.49
2022-09-14T11:33:34.763Z,22.36
2022-09-14T11:36:48.716Z,22.24
2022-09-14T11:40:09.685Z,22.26
2022-09-14T11:43:41.629Z,22.47
2022-09-14T11:47:18.653Z,22.81
2022-09-14T11:50:33.976Z,22.77
2022-09-14T11:53:43.561Z,22.85
2022-09-14T11:57:05.609Z,22.90
2022-09-14T12:00:28.938Z,22.76
2022-09-14T12:04:00.588Z,22.98
2022-09-14T12:07:17.681Z,23.11
2022-09-14T12:10:20.637Z,23.23
2022-09-14T12:13:36.615Z,23.04
2022-09-14T12:20:45.009Z,23.84
2022-09-14T12:24:01.589Z,24.39
2022-09-14T12:27:22.323Z,24.77
2022-09-14T12:31:00.813Z,24.80
2022-09-14T12:34:29.583Z,25.37
2022-09-14T12:37:38.212Z,25.22
2022-09-14T12:40:46.680Z,25.01
2022-09-14T12:44:02.695Z,24.95
2022-09-14T12:47:24.633Z,24.99
2022-09-14T12:50:43.687Z,24.62
2022-09-14T12:53:51.735Z,24.67
2022-09-14T12:57:26.736Z,24.27
2022-09-14T13:00:59.705Z,24.10
2022-09-14T13:04:03.026Z,24.01
2022-09-14T13:07:23.638Z,24.09
2022-09-14T13:10:41.690Z,24.22
2022-09-14T13:13:57.671Z,24.42
2022-09-14T13:17:20.639Z,24.34
2022-09-14T13:20:22.580Z,24.26
2022-09-14T13:23:44.647Z,24.38
2022-09-14T13:26:57.128Z,24.39
2022-09-14T13:30:13.671Z,24.54
2022-09-14T13:33:29.935Z,24.30
2022-09-14T13:36:36.749Z,24.46
2022-09-14T13:39:57.685Z,24.43
2022-09-14T13:43:19.630Z,24.48
2022-09-14T13:46:30.737Z,24.43
2022-09-14T13:49:40.719Z,24.09
2022-09-14T13:53:02.362Z,24.17
2022-09-14T13:56:16.200Z,24.27
2022-09-14T13:59:30.904Z,24.29
2022-09-14T14:02:35.617Z,24.26
2022-09-14T14:05:50.700Z,24.17
2022-09-14T14:09:03.718Z,24.32
2022-09-14T14:12:22.555Z,24.32
2022-09-14T14:15:44.684Z,24.17
2022-09-14T14:19:02.700Z,24.22
2022-09-14T14:22:23.709Z,24.14
2022-09-14T14:25:46.038Z,23.96
2022-09-14T14:28:48.398Z,23.92
2022-09-14T14:32:02.770Z,23.92
2022-09-14T14:35:20.755Z,24.02
2022-09-14T14:38:29.276Z,23.99
2022-09-14T14:41:50.833Z,24.05
2022-09-14T14:45:00.121Z,24.05
2022-09-14T14:48:09.767Z,24.03
2022-09-14T14:51:18.588Z,24.12
2022-09-14T14:54:33.715Z,24.04
2022-09-14T14:57:35.720Z,23.95
2022-09-14T15:00:51.796Z,23.77
2022-09-14T15:04:00.402Z,23.63
2022-09-14T15:07:08.736Z,23.60
2022-09-14T15:10:23.739Z,23.66
2022-09-14T15:13:31.699Z,23.66
2022-09-14T15:16:41.556Z,23.63
2022-09-14T15:19:56.763Z,23.63
2022-09-14T15:22:58.988Z,23.71
2022-09-14T15:26:24.763Z,23.80
2022-09-14T15:29:33.837Z,23.95
2022-09-14T15:32:42.724Z,23.90
2022-09-14T15:35:56.146Z,23.81
2022-09-14T15:39:04.748Z,23.65
2022-09-14T15:42:20.496Z,23.61
2022-09-14T15:45:34.809Z,23.57
2022-09-14T15:48:37.019Z,23.42
2022-09-14T15:51:55.771Z,23.49
2022-09-14T15:55:07.128Z,23.42
2022-09-14T15:58:15.759Z,23.33
2022-09-14T16:01:30.987Z,23.30
2022-09-14T16:04:46.852Z,23.28
2022-09-14T16:07:48.660Z,23.21
2022-09-14T16:11:05.889Z,23.16
2022-09-14T16:14:15.846Z,23.09
2022-09-14T16:17:30.793Z,23.04
2022-09-14T16:20:45.794Z,23.01
2022-09-14T16:23:51.061Z,22.99
2022-09-14T16:27:06.757Z,22.97
2022-09-14T16:30:15.505Z,22.89
2022-09-14T16:33:23.813Z,22.88
2022-09-14T16:36:41.878Z,22.80
2022-09-14T16:39:51.866Z,22.76
2022-09-14T16:43:07.084Z,22.69
2022-09-14T16:46:23.785Z,22.63
2022-09-14T16:49:28.207Z,22.62
2022-09-14T16:52:42.763Z,22.50
2022-09-14T16:55:51.444Z,22.53
2022-09-14T16:59:01.847Z,22.50
2022-09-14T17:02:17.831Z,22.43
2022-09-14T17:05:26.377Z,22.38
2022-09-14T17:08:34.791Z,22.32
2022-09-14T17:11:43.987Z,22.27
2022-09-14T17:14:52.823Z,22.24
2022-09-14T17:18:01.470Z,22.21
2022-09-14T17:21:18.860Z,22.17
2022-09-14T17:24:27.817Z,22.10
2022-09-14T17:27:42.803Z,22.03
2022-09-14T17:30:52.542Z,21.94
2022-09-14T17:34:01.848Z,21.92
2022-09-14T17:37:10.507Z,21.92
2022-09-14T17:40:18.881Z,21.92
2022-09-14T17:43:27.548Z,21.88
2022-09-14T17:46:51.679Z,21.87
2022-09-14T17:49:54.554Z,21.83
2022-09-14T17:53:08.804Z,21.76
2022-09-14T17:56:26.832Z,21.71
2022-09-14T17:59:34.872Z,21.65
2022-09-14T18:02:43.509Z,21.62
2022-09-14T18:06:00.909Z,21.58
2022-09-14T18:09:13.388Z,21.56
2022-09-14T18:12:21.867Z,21.45
2022-09-14T18:15:32.019Z,21.53
2022-09-14T18:18:47.872Z,21.51
2022-09-14T18:21:52.618Z,21.47
2022-09-14T18:25:11.643Z,21.43
2022-09-14T18:28:19.847Z,21.34
2022-09-14T18:31:30.226Z,21.39
2022-09-14T18:34:44.868Z,21.37
2022-09-14T18:37:46.636Z,21.33
2022-09-14T18:41:08.920Z,21.31
2022-09-14T18:44:24.871Z,21.29
2022-09-14T18:47:26.715Z,21.28
2022-09-14T18:50:44.836Z,21.23
2022-09-14T18:53:59.122Z,21.16
2022-09-14T18:57:07.878Z,21.16
2022-09-14T19:00:18.940Z,21.14
2022-09-14T19:03:26.867Z,21.05
2022-09-14T19:06:36.656Z,21.05
2022-09-14T19:09:51.932Z,21.02
2022-09-14T19:12:53.890Z,20.99
2022-09-14T19:16:14.011Z,20.98
2022-09-14T19:19:28.914Z,20.96
2022-09-14T19:22:30.919Z,20.99
2022-09-14T19:25:46.950Z,20.97
2022-09-14T19:28:48.795Z,20.98
2022-09-14T19:32:03.896Z,20.96
2022-09-14T19:35:12.567Z,20.95
2022-09-14T19:38:20.885Z,20.80
2022-09-14T19:41:56.215Z,20.88
2022-09-14T19:45:24.955Z,20.88
2022-09-14T19:48:33.931Z,20.84
2022-09-14T19:51:49.948Z,20.78
2022-09-14T19:54:59.403Z,20.75
2022-09-14T19:58:07.798Z,20.74
2022-09-14T20:01:26.121Z,20.77
2022-09-14T20:04:28.076Z,20.80
2022-09-14T20:07:42.922Z,20.82
2022-09-14T20:10:57.948Z,20.86
2022-09-14T20:14:04.134Z,20.90
2022-09-14T20:17:18.927Z,20.84
2022-09-14T20:20:33.911Z,20.91
2022-09-14T20:23:36.307Z,20.91
2022-09-14T20:26:52.899Z,20.87
2022-09-14T20:30:00.933Z,20.87
2022-09-14T20:33:15.900Z,20.86
2022-09-14T20:36:25.769Z,20.80
2022-09-14T20:39:33.928Z,20.78
2022-09-14T20:42:55.916Z,20.78
2022-09-14T20:46:15.001Z,20.73
2022-09-14T20:49:25.919Z,20.73
2022-09-14T20:52:35.583Z,20.72
2022-09-14T20:55:50.014Z,20.71
2022-09-14T20:58:54.976Z,20.77
2022-09-14T21:02:10.043Z,20.80
2022-09-14T21:05:18.965Z,20.81
2022-09-14T21:08:35.963Z,20.82
2022-09-14T21:11:52.001Z,20.83
2022-09-14T21:14:53.940Z,20.83
2022-09-14T21:18:08.944Z,20.82
2022-09-14T21:21:19.199Z,20.85
2022-09-14T21:24:29.022Z,20.86
2022-09-14T21:27:45.003Z,20.87
2022-09-14T21:30:54.115Z,20.87
2022-09-14T21:34:10.973Z,20.90
2022-09-14T21:37:19.556Z,20.93
2022-09-14T21:40:28.011Z,20.96
2022-09-14T21:43:43.312Z,20.94
2022-09-14T21:46:57.990Z,21.01
2022-09-14T21:49:59.880Z,21.03
2022-09-14T21:53:15.009Z,21.04
2022-09-14T21:56:25.772Z,21.04
2022-09-14T21:59:34.023Z,21.07
2022-09-14T22:02:42.956Z,21.09
2022-09-14T22:06:01.037Z,21.10
2022-09-14T22:09:15.984Z,21.11
2022-09-14T22:12:30.972Z,21.09
2022-09-14T22:15:33.882Z,21.09
2022-09-14T22:18:56.035Z,21.05
2022-09-14T22:22:10.971Z,21.01
2022-09-14T22:25:12.797Z,20.96
2022-09-14T22:28:28.154Z,20.95
2022-09-14T22:31:40.105Z,20.94
2022-09-14T22:34:49.678Z,20.92
2022-09-14T22:37:57.907Z,20.85
2022-09-14T22:41:09.177Z,20.84
2022-09-14T22:44:31.019Z,20.81
2022-09-14T22:47:45.990Z,20.81
2022-09-14T22:50:51.008Z,20.88
2022-09-14T22:54:06.030Z,20.94
2022-09-14T23:00:56.058Z,20.93
2022-09-14T23:04:15.078Z,20.83
2022-09-14T23:07:30.044Z,20.94
2022-09-14T23:10:43.051Z,20.97
2022-09-14T23:13:52.115Z,20.99
2022-09-14T23:17:01.241Z,21.01
2022-09-14T23:20:11.245Z,21.00
2022-09-14T23:23:26.024Z,21.02
2022-09-14T23:26:42.020Z,21.03
2022-09-14T23:29:51.088Z,20.94
2022-09-14T23:33:07.025Z,21.04
2022-09-14T23:36:10.146Z,21.05
2022-09-14T23:39:26.080Z,21.05
2022-09-14T23:42:48.064Z,21.04
2022-09-14T23:46:04.065Z,21.05
2022-09-14T23:49:24.030Z,21.03
2022-09-14T23:52:39.114Z,21.06
2022-09-14T23:55:41.888Z,21.03
2022-09-14T23:58:58.058Z,21.06
